Time;durP1;ratioP1;P1;durP2;ratioP2;P2;SDS_P1;SDS_P2;PMS_P1;PMS_P2;Temp;Humidity;BMP_temperature;BMP_pressure;BME280_temperature;BME280_humidity;BME280_pressure;Samples;Min_cycle;Max_cycle;Signal;HPM_P1;HPM_P2
2022/11/04 00:01:19;;;;;;;;;;;9.10;99.90;;;;;;5018127;28;20299;-70
2022/11/04 00:03:45;;;;;;;;;;;9.10;99.90;;;;;;5027163;28;19931;-71
2022/11/04 00:06:12;;;;;;;;;;;9.00;99.90;;;;;;5024792;28;20353;-71
2022/11/04 00:08:39;;;;;;;;;;;9.00;99.90;;;;;;5031645;28;20315;-71
2022/11/04 00:13:51;;;;;;;;;;;8.90;99.90;;;;;;5021905;28;19932;-71
2022/11/04 00:19:02;;;;;;;;;;;8.90;99.90;;;;;;5027877;28;19932;-71
2022/11/04 00:29:42;;;;;;;;;;;8.80;99.90;;;;;;5025688;28;19932;-70
2022/11/04 00:34:53;;;;;;;;;;;8.80;99.90;;;;;;5027496;28;19932;-71
2022/11/04 00:37:20;;;;;;;;;;;8.70;99.90;;;;;;5031832;28;19969;-70
2022/11/04 00:39:46;;;;;;;;;;;8.70;99.90;;;;;;5019943;28;19926;-71
2022/11/04 00:42:14;;;;;;;;;;;8.70;99.90;;;;;;5019393;28;19926;-71
2022/11/04 00:44:41;;;;;;;;;;;8.70;99.90;;;;;;5026030;28;20011;-70
2022/11/04 00:47:08;;;;;;;;;;;8.70;99.90;;;;;;5030766;28;20034;-70
2022/11/04 00:49:34;;;;;;;;;;;8.70;99.90;;;;;;5020077;28;19935;-72
2022/11/04 00:52:01;;;;;;;;;;;8.70;99.90;;;;;;5031808;28;20024;-70
2022/11/04 00:54:28;;;;;;;;;;;8.70;99.90;;;;;;5029212;28;19984;-70
2022/11/04 00:56:54;;;;;;;;;;;8.70;99.90;;;;;;5017535;28;19972;-70
2022/11/04 00:59:22;;;;;;;;;;;8.80;99.90;;;;;;5020009;28;19991;-70
2022/11/04 01:01:49;;;;;;;;;;;8.80;99.90;;;;;;5017301;28;20388;-70
2022/11/04 01:04:15;;;;;;;;;;;8.80;99.90;;;;;;5021600;28;20475;-70
2022/11/04 01:06:42;;;;;;;;;;;8.90;99.90;;;;;;5020443;28;19935;-70
2022/11/04 01:09:11;;;;;;;;;;;8.90;99.90;;;;;;5019081;28;20024;-70
2022/11/04 01:11:38;;;;;;;;;;;8.90;99.90;;;;;;5019474;28;19931;-71
2022/11/04 01:14:05;;;;;;;;;;;8.90;99.90;;;;;;5021605;28;19991;-70
2022/11/04 01:16:33;;;;;;;;;;;8.90;99.90;;;;;;5016897;28;19972;-70
2022/11/04 01:19:00;;;;;;;;;;;9.00;99.90;;;;;;5023118;28;19925;-70
2022/11/04 01:21:26;;;;;;;;;;;9.00;99.90;;;;;;5025008;28;19925;-70
2022/11/04 01:23:53;;;;;;;;;;;9.10;99.90;;;;;;5020476;28;20451;-70
2022/11/04 01:26:20;;;;;;;;;;;9.10;99.90;;;;;;5018523;28;19933;-70
2022/11/04 01:28:47;;;;;;;;;;;9.10;99.90;;;;;;5021071;28;19929;-70
2022/11/04 01:31:15;;;;;;;;;;;9.10;99.90;;;;;;5025313;28;20025;-70
2022/11/04 01:33:43;;;;;;;;;;;9.20;99.90;;;;;;5020582;28;20012;-70
2022/11/04 01:36:11;;;;;;;;;;;9.20;99.90;;;;;;5026568;28;19925;-70
2022/11/04 01:38:37;;;;;;;;;;;9.20;99.90;;;;;;5024561;28;19976;-70
2022/11/04 01:41:05;;;;;;;;;;;9.20;99.90;;;;;;5026398;28;19925;-70
2022/11/04 01:43:42;;;;;;;;;;;9.20;99.90;;;;;;5025161;28;20012;-70
2022/11/04 01:46:11;;;;;;;;;;;9.30;99.90;;;;;;5019913;28;19929;-71
2022/11/04 01:48:38;;;;;;;;;;;9.30;99.90;;;;;;5018105;28;19932;-71
2022/11/04 01:51:06;;;;;;;;;;;9.30;99.90;;;;;;5020920;28;19935;-71
2022/11/04 01:53:35;;;;;;;;;;;9.30;99.90;;;;;;5027137;28;20335;-71
2022/11/04 01:56:10;;;;;;;;;;;9.30;99.90;;;;;;5029970;28;19976;-70
2022/11/04 01:58:39;;;;;;;;;;;9.30;99.90;;;;;;5021177;28;19925;-71
2022/11/04 02:01:06;;;;;;;;;;;9.30;99.90;;;;;;5021692;28;19925;-71
2022/11/04 02:03:34;;;;;;;;;;;9.30;99.90;;;;;;5024065;28;19925;-71
2022/11/04 02:06:02;;;;;;;;;;;9.30;99.90;;;;;;5030274;28;19932;-71
2022/11/04 02:08:30;;;;;;;;;;;9.30;99.90;;;;;;5022579;28;20312;-70
2022/11/04 02:10:58;;;;;;;;;;;9.30;99.90;;;;;;5021688;28;19931;-71
2022/11/04 02:13:24;;;;;;;;;;;9.20;99.90;;;;;;5021033;28;19931;-70
2022/11/04 02:15:54;;;;;;;;;;;9.20;99.90;;;;;;5021045;28;20016;-70
2022/11/04 02:18:25;;;;;;;;;;;9.20;99.90;;;;;;5022979;28;19925;-71
2022/11/04 02:21:05;;;;;;;;;;;9.20;99.90;;;;;;5027255;28;19926;-70
2022/11/04 02:23:45;;;;;;;;;;;9.20;99.90;;;;;;5023853;28;19932;-70
2022/11/04 02:26:38;;;;;;;;;;;9.20;99.90;;;;;;5022220;28;19939;-70
2022/11/04 02:29:31;;;;;;;;;;;9.10;99.90;;;;;;4961317;28;1825492;-71
2022/11/04 02:32:03;;;;;;;;;;;9.00;99.90;;;;;;5024663;28;20040;-70
2022/11/04 02:34:33;;;;;;;;;;;9.00;99.90;;;;;;5031294;28;19939;-71
2022/11/04 02:37:06;;;;;;;;;;;8.90;99.90;;;;;;5025747;28;19935;-70
2022/11/04 02:39:36;;;;;;;;;;;8.90;99.90;;;;;;5020405;28;20008;-71
2022/11/04 02:42:09;;;;;;;;;;;8.90;99.90;;;;;;5024824;28;20008;-71
2022/11/04 02:44:38;;;;;;;;;;;8.90;99.90;;;;;;5024070;28;20003;-71
2022/11/04 02:47:07;;;;;;;;;;;8.90;99.90;;;;;;5024159;28;19932;-70
2022/11/04 02:49:37;;;;;;;;;;;8.90;99.90;;;;;;5020224;28;19932;-71
2022/11/04 02:52:05;;;;;;;;;;;9.00;99.90;;;;;;5027116;28;19929;-71
2022/11/04 02:54:34;;;;;;;;;;;9.00;99.90;;;;;;5019215;28;19933;-72
2022/11/04 02:57:02;;;;;;;;;;;9.00;99.90;;;;;;5024994;28;20232;-71
2022/11/04 02:59:32;;;;;;;;;;;9.00;99.90;;;;;;5021906;28;19936;-71
2022/11/04 03:02:02;;;;;;;;;;;9.10;99.90;;;;;;5021800;28;20255;-72
2022/11/04 03:04:31;;;;;;;;;;;9.10;99.90;;;;;;5022804;28;19925;-72
2022/11/04 03:07:00;;;;;;;;;;;9.10;99.90;;;;;;5027370;28;19932;-70
2022/11/04 03:09:28;;;;;;;;;;;9.10;99.90;;;;;;5032002;28;20284;-70
2022/11/04 03:11:57;;;;;;;;;;;9.00;99.90;;;;;;5021477;28;20031;-71
2022/11/04 03:14:26;;;;;;;;;;;9.10;99.90;;;;;;5022672;28;19940;-70
2022/11/04 03:16:54;;;;;;;;;;;9.00;99.90;;;;;;5029782;28;20045;-71
2022/11/04 03:19:26;;;;;;;;;;;9.00;99.90;;;;;;5020272;28;20029;-70
2022/11/04 03:21:54;;;;;;;;;;;9.00;99.90;;;;;;5023742;28;19925;-70
2022/11/04 03:24:21;;;;;;;;;;;9.00;99.90;;;;;;5030573;28;19925;-70
2022/11/04 03:26:50;;;;;;;;;;;9.00;99.90;;;;;;5027092;28;19925;-71
2022/11/04 03:29:21;;;;;;;;;;;9.00;99.90;;;;;;5026698;28;20318;-71
2022/11/04 03:31:49;;;;;;;;;;;9.00;99.90;;;;;;5019451;28;19932;-71
2022/11/04 03:34:16;;;;;;;;;;;9.00;99.90;;;;;;5029224;28;20012;-71
2022/11/04 03:36:44;;;;;;;;;;;9.10;99.90;;;;;;5030467;28;19931;-71
2022/11/04 03:39:10;;;;;;;;;;;9.10;99.90;;;;;;5032116;28;19925;-71
2022/11/04 03:41:41;;;;;;;;;;;9.10;99.90;;;;;;5027929;28;20087;-71
2022/11/04 03:44:07;;;;;;;;;;;9.10;99.90;;;;;;5025327;28;20375;-72
2022/11/04 03:46:34;;;;;;;;;;;9.10;99.90;;;;;;5026899;28;20478;-71
2022/11/04 03:49:01;;;;;;;;;;;9.10;99.90;;;;;;5032572;28;19925;-71
2022/11/04 03:51:28;;;;;;;;;;;9.10;99.90;;;;;;5029566;28;20381;-70
2022/11/04 03:53:56;;;;;;;;;;;9.20;99.90;;;;;;5027180;28;19937;-71
2022/11/04 03:56:40;;;;;;;;;;;9.20;99.90;;;;;;5028590;28;19932;-71
2022/11/04 03:59:16;;;;;;;;;;;9.20;99.90;;;;;;5029890;28;20436;-71
2022/11/04 04:01:48;;;;;;;;;;;9.20;99.90;;;;;;5027818;28;20023;-72
2022/11/04 04:04:16;;;;;;;;;;;9.20;99.90;;;;;;5026751;28;19925;-72
2022/11/04 04:06:43;;;;;;;;;;;9.30;99.90;;;;;;5032294;28;19932;-72
2022/11/04 04:09:13;;;;;;;;;;;9.30;99.90;;;;;;5026569;28;19933;-72
2022/11/04 04:11:42;;;;;;;;;;;9.30;99.90;;;;;;5024843;28;21193;-71
2022/11/04 04:14:37;;;;;;;;;;;9.30;99.90;;;;;;5026060;28;19932;-70
2022/11/04 04:17:05;;;;;;;;;;;9.30;99.90;;;;;;5013257;28;19926;-68
2022/11/04 04:19:31;;;;;;;;;;;9.30;99.90;;;;;;5030054;28;19925;-68
2022/11/04 04:22:01;;;;;;;;;;;9.30;99.90;;;;;;5022269;28;20353;-69
2022/11/04 04:27:33;;;;;;;;;;;9.30;99.90;;;;;;5021517;28;19944;-69
2022/11/04 04:30:02;;;;;;;;;;;9.30;99.90;;;;;;5019513;28;20464;-68
2022/11/04 04:32:32;;;;;;;;;;;9.30;99.90;;;;;;5015232;28;19932;-69
2022/11/04 04:37:40;;;;;;;;;;;9.30;99.90;;;;;;5030424;28;20276;-69
2022/11/04 04:45:58;;;;;;;;;;;9.40;99.90;;;;;;4983634;28;20449;-69
2022/11/04 04:48:24;;;;;;;;;;;9.40;99.90;;;;;;5004829;28;19935;-70
2022/11/04 04:50:55;;;;;;;;;;;9.50;99.90;;;;;;5020137;28;20012;-69
2022/11/04 04:53:22;;;;;;;;;;;9.50;99.90;;;;;;5022021;28;20273;-69
2022/11/04 04:55:50;;;;;;;;;;;9.50;99.90;;;;;;5021547;28;19931;-69
2022/11/04 04:58:16;;;;;;;;;;;9.50;99.90;;;;;;5023027;28;21629;-70
2022/11/04 05:00:43;;;;;;;;;;;9.50;99.90;;;;;;5026943;28;19925;-70
2022/11/04 05:03:10;;;;;;;;;;;9.60;99.90;;;;;;5023519;28;19936;-70
2022/11/04 05:05:36;;;;;;;;;;;9.60;99.90;;;;;;5017465;28;19925;-70
2022/11/04 05:08:06;;;;;;;;;;;9.60;99.90;;;;;;5023320;28;19925;-70
2022/11/04 05:10:33;;;;;;;;;;;9.60;99.90;;;;;;5025112;28;19932;-70
2022/11/04 05:15:45;;;;;;;;;;;9.60;99.90;;;;;;5025739;28;20403;-69
2022/11/04 05:18:12;;;;;;;;;;;9.70;99.90;;;;;;5024664;28;20391;-69
2022/11/04 05:20:39;;;;;;;;;;;9.70;99.90;;;;;;5020281;28;20388;-69
2022/11/04 05:23:06;;;;;;;;;;;9.70;99.90;;;;;;5017873;28;19925;-69
2022/11/04 05:25:32;;;;;;;;;;;9.70;99.90;;;;;;5017689;28;19929;-69
2022/11/04 05:28:01;;;;;;;;;;;9.70;99.90;;;;;;5025855;28;19929;-69
2022/11/04 05:30:28;;;;;;;;;;;9.70;99.90;;;;;;5021656;28;19925;-69
2022/11/04 05:32:55;;;;;;;;;;;9.70;99.90;;;;;;5021136;28;19925;-69
2022/11/04 05:35:22;;;;;;;;;;;9.70;99.90;;;;;;5027594;28;19933;-69
2022/11/04 05:37:48;;;;;;;;;;;9.70;99.90;;;;;;5026528;28;19940;-69
2022/11/04 05:40:15;;;;;;;;;;;9.70;99.90;;;;;;5018122;28;20019;-70
2022/11/04 05:42:42;;;;;;;;;;;9.70;99.90;;;;;;5025168;28;20008;-69
2022/11/04 05:45:10;;;;;;;;;;;9.60;99.90;;;;;;5022725;28;19936;-69
2022/11/04 05:47:37;;;;;;;;;;;9.70;99.90;;;;;;5023716;28;20015;-69
2022/11/04 05:50:04;;;;;;;;;;;9.70;99.90;;;;;;5025319;28;19931;-69
2022/11/04 05:52:30;;;;;;;;;;;9.70;99.90;;;;;;5020581;28;19931;-69
2022/11/04 05:54:57;;;;;;;;;;;9.70;99.90;;;;;;5019665;28;19925;-69
2022/11/04 05:57:24;;;;;;;;;;;9.70;99.90;;;;;;5022443;28;19925;-69
2022/11/04 05:59:50;;;;;;;;;;;9.60;99.90;;;;;;5023651;28;21288;-70
2022/11/04 06:02:18;;;;;;;;;;;9.50;99.90;;;;;;5026723;28;19933;-72
2022/11/04 06:04:45;;;;;;;;;;;9.60;99.90;;;;;;5024998;28;20458;-70
2022/11/04 06:07:12;;;;;;;;;;;9.50;99.90;;;;;;5020233;28;20020;-70
2022/11/04 06:09:38;;;;;;;;;;;9.50;99.90;;;;;;5027511;28;20015;-70
2022/11/04 06:12:06;;;;;;;;;;;9.50;99.90;;;;;;5025370;28;19964;-71
2022/11/04 06:14:33;;;;;;;;;;;9.50;99.90;;;;;;5028771;28;19980;-70
2022/11/04 06:17:00;;;;;;;;;;;9.50;99.90;;;;;;5021930;28;19935;-70
2022/11/04 06:19:28;;;;;;;;;;;9.50;99.90;;;;;;5026731;28;19932;-70
2022/11/04 06:21:54;;;;;;;;;;;9.50;99.90;;;;;;5029921;28;20383;-70
2022/11/04 06:24:21;;;;;;;;;;;9.50;99.90;;;;;;5021024;28;20364;-70
2022/11/04 06:26:47;;;;;;;;;;;9.40;99.90;;;;;;5028167;28;20755;-70
2022/11/04 06:29:14;;;;;;;;;;;9.50;99.90;;;;;;5024503;28;20016;-70
2022/11/04 06:31:41;;;;;;;;;;;9.50;99.90;;;;;;5023512;28;19951;-70
2022/11/04 06:34:07;;;;;;;;;;;9.40;99.90;;;;;;5023962;28;20563;-70
2022/11/04 06:36:36;;;;;;;;;;;9.50;99.90;;;;;;5024683;28;19925;-70
2022/11/04 06:39:03;;;;;;;;;;;9.50;99.90;;;;;;5022742;28;20301;-71
2022/11/04 06:41:30;;;;;;;;;;;9.40;99.90;;;;;;5022121;28;19968;-70
2022/11/04 06:43:57;;;;;;;;;;;9.30;99.90;;;;;;5027787;28;19925;-71
2022/11/04 06:46:25;;;;;;;;;;;9.30;99.90;;;;;;5022476;28;20052;-70
2022/11/04 06:48:51;;;;;;;;;;;9.40;99.90;;;;;;5019392;28;19925;-70
2022/11/04 06:51:18;;;;;;;;;;;9.40;99.90;;;;;;5025640;28;19991;-70
2022/11/04 06:53:46;;;;;;;;;;;9.30;99.90;;;;;;5024441;28;20008;-71
2022/11/04 06:56:13;;;;;;;;;;;9.30;99.90;;;;;;5025014;28;19931;-73
2022/11/04 06:58:40;;;;;;;;;;;9.30;99.90;;;;;;5023756;28;20031;-70
2022/11/04 07:01:06;;;;;;;;;;;9.30;99.90;;;;;;5021369;28;19925;-71
2022/11/04 07:03:33;;;;;;;;;;;9.40;99.90;;;;;;5025553;28;20451;-70
2022/11/04 07:06:05;;;;;;;;;;;9.30;99.90;;;;;;5033332;28;20017;-70
2022/11/04 07:08:31;;;;;;;;;;;9.30;99.90;;;;;;5035276;28;19929;-71
2022/11/04 07:10:59;;;;;;;;;;;9.30;99.90;;;;;;5023192;28;19979;-70
2022/11/04 07:13:26;;;;;;;;;;;9.30;99.90;;;;;;5015768;28;19925;-70
2022/11/04 07:15:53;;;;;;;;;;;9.30;99.90;;;;;;5015885;28;19925;-70
2022/11/04 07:18:19;;;;;;;;;;;9.30;99.90;;;;;;5021775;28;19931;-71
2022/11/04 07:20:46;;;;;;;;;;;9.30;99.90;;;;;;5025391;28;19932;-71
2022/11/04 07:23:13;;;;;;;;;;;9.30;99.90;;;;;;5026723;28;19925;-69
2022/11/04 07:25:39;;;;;;;;;;;9.20;99.90;;;;;;5034341;28;20407;-70
2022/11/04 07:28:07;;;;;;;;;;;9.20;99.90;;;;;;5031023;28;20012;-72
2022/11/04 07:30:34;;;;;;;;;;;9.30;99.90;;;;;;5026745;28;20298;-70
2022/11/04 07:33:01;;;;;;;;;;;9.40;99.90;;;;;;5026456;28;19925;-71
2022/11/04 07:35:28;;;;;;;;;;;9.40;99.90;;;;;;5026790;28;19933;-71
2022/11/04 07:37:55;;;;;;;;;;;9.50;99.90;;;;;;5033184;28;19932;-71
2022/11/04 07:40:21;;;;;;;;;;;9.50;99.90;;;;;;5028760;28;20020;-70
2022/11/04 07:42:48;;;;;;;;;;;9.60;99.90;;;;;;5025471;28;19926;-71
2022/11/04 07:45:16;;;;;;;;;;;9.50;99.90;;;;;;5025573;28;20287;-69
2022/11/04 07:47:43;;;;;;;;;;;9.50;99.90;;;;;;5028757;28;19925;-69
2022/11/04 07:50:10;;;;;;;;;;;9.50;99.90;;;;;;5031296;28;19947;-70
2022/11/04 07:52:36;;;;;;;;;;;9.60;99.90;;;;;;5028044;28;19929;-71
2022/11/04 07:55:03;;;;;;;;;;;9.50;99.90;;;;;;5015823;28;19925;-71
2022/11/04 07:57:30;;;;;;;;;;;9.60;99.90;;;;;;5020905;28;20269;-71
2022/11/04 07:59:56;;;;;;;;;;;9.60;99.90;;;;;;5023676;28;19960;-71
2022/11/04 08:02:24;;;;;;;;;;;9.60;99.90;;;;;;5022694;28;20364;-71
2022/11/04 08:04:51;;;;;;;;;;;9.60;99.90;;;;;;5024262;28;20331;-70
2022/11/04 08:07:18;;;;;;;;;;;9.70;99.90;;;;;;5031020;28;19931;-71
2022/11/04 08:09:44;;;;;;;;;;;9.70;99.90;;;;;;5029258;28;19932;-71
2022/11/04 08:12:11;;;;;;;;;;;9.80;99.90;;;;;;5034497;28;20193;-71
2022/11/04 08:14:38;;;;;;;;;;;9.80;99.90;;;;;;5031576;28;20011;-72
2022/11/04 08:17:04;;;;;;;;;;;9.90;99.90;;;;;;5033307;28;20009;-71
2022/11/04 08:19:32;;;;;;;;;;;9.90;99.90;;;;;;5031808;28;20375;-70
2022/11/04 08:21:59;;;;;;;;;;;9.90;99.90;;;;;;5020861;28;20020;-70
2022/11/04 08:24:25;;;;;;;;;;;9.90;99.90;;;;;;5019854;28;20011;-71
2022/11/04 08:26:52;;;;;;;;;;;10.00;99.90;;;;;;5019247;28;19925;-71
2022/11/04 08:29:19;;;;;;;;;;;10.10;99.90;;;;;;5027567;28;20016;-72
2022/11/04 08:31:45;;;;;;;;;;;10.20;99.90;;;;;;5015986;28;19932;-73
2022/11/04 08:34:13;;;;;;;;;;;10.50;99.90;;;;;;5023426;28;19925;-72
2022/11/04 08:36:41;;;;;;;;;;;11.10;99.90;;;;;;5037218;28;19925;-71
2022/11/04 08:39:09;;;;;;;;;;;11.30;99.90;;;;;;5019005;28;19945;-72
2022/11/04 08:41:37;;;;;;;;;;;10.90;99.90;;;;;;5021159;28;19961;-71
2022/11/04 08:44:05;;;;;;;;;;;11.50;99.90;;;;;;5025097;28;19987;-72
2022/11/04 08:46:32;;;;;;;;;;;11.40;99.90;;;;;;5022809;28;19933;-70
2022/11/04 08:48:59;;;;;;;;;;;11.20;99.90;;;;;;5021898;28;19925;-73
2022/11/04 08:51:26;;;;;;;;;;;11.20;99.90;;;;;;5024578;28;20024;-70
2022/11/04 08:53:54;;;;;;;;;;;11.20;99.90;;;;;;5026709;28;20112;-71
2022/11/04 08:56:22;;;;;;;;;;;11.20;99.90;;;;;;5028752;28;20048;-71
2022/11/04 08:58:49;;;;;;;;;;;11.10;99.90;;;;;;5024109;28;20011;-71
2022/11/04 09:01:16;;;;;;;;;;;11.00;99.90;;;;;;5019079;28;20483;-71
2022/11/04 09:03:43;;;;;;;;;;;11.00;99.90;;;;;;5019573;28;20424;-70
2022/11/04 09:06:12;;;;;;;;;;;11.10;99.90;;;;;;5019011;28;19976;-70
2022/11/04 09:08:38;;;;;;;;;;;11.30;99.90;;;;;;5030872;28;20016;-70
2022/11/04 09:11:08;;;;;;;;;;;11.40;99.90;;;;;;5025015;28;19925;-71
2022/11/04 09:13:34;;;;;;;;;;;11.30;99.90;;;;;;5020823;28;20564;-70
2022/11/04 09:16:01;;;;;;;;;;;11.60;99.90;;;;;;5023216;28;19937;-71
2022/11/04 09:18:28;;;;;;;;;;;11.80;99.90;;;;;;5022638;28;19929;-71
2022/11/04 09:21:03;;;;;;;;;;;12.00;99.90;;;;;;5020935;28;19937;-72
2022/11/04 09:23:30;;;;;;;;;;;12.00;99.90;;;;;;5018033;28;19945;-71
2022/11/04 09:25:57;;;;;;;;;;;12.10;99.90;;;;;;5017496;28;20603;-71
2022/11/04 09:28:25;;;;;;;;;;;12.10;99.90;;;;;;5015302;28;19932;-71
2022/11/04 09:30:52;;;;;;;;;;;12.00;99.90;;;;;;5015487;28;20349;-72
2022/11/04 09:33:18;;;;;;;;;;;11.90;99.90;;;;;;5020289;28;19925;-71
2022/11/04 09:35:53;;;;;;;;;;;12.00;99.90;;;;;;5025786;28;20469;-72
2022/11/04 09:38:20;;;;;;;;;;;11.90;99.90;;;;;;5016761;28;20368;-71
2022/11/04 09:40:49;;;;;;;;;;;11.70;99.90;;;;;;5014318;28;20026;-70
2022/11/04 09:43:24;;;;;;;;;;;11.50;99.90;;;;;;5025963;28;20372;-71
2022/11/04 09:45:53;;;;;;;;;;;11.20;99.90;;;;;;5021109;28;19925;-71
2022/11/04 09:48:24;;;;;;;;;;;11.10;99.90;;;;;;5018926;28;19972;-71
2022/11/04 09:50:52;;;;;;;;;;;11.30;99.90;;;;;;5015947;28;19955;-71
2022/11/04 09:53:21;;;;;;;;;;;11.30;99.90;;;;;;5021594;28;20022;-72
2022/11/04 09:55:50;;;;;;;;;;;11.20;99.90;;;;;;5024227;28;19972;-71
2022/11/04 09:58:17;;;;;;;;;;;11.10;99.90;;;;;;5026666;28;19925;-70
2022/11/04 10:00:48;;;;;;;;;;;11.00;99.90;;;;;;5027841;28;20012;-71
2022/11/04 10:03:24;;;;;;;;;;;11.00;99.90;;;;;;5019703;28;19925;-72
2022/11/04 10:05:58;;;;;;;;;;;11.10;99.90;;;;;;5018809;28;20012;-71
2022/11/04 10:08:36;;;;;;;;;;;11.20;99.90;;;;;;5022207;28;20295;-72
2022/11/04 10:11:06;;;;;;;;;;;11.20;99.90;;;;;;5021214;28;19941;-71
2022/11/04 10:13:40;;;;;;;;;;;11.00;99.90;;;;;;5018888;28;19929;-71
2022/11/04 10:16:14;;;;;;;;;;;11.00;99.90;;;;;;5017958;28;20023;-70
2022/11/04 10:18:57;;;;;;;;;;;10.90;99.90;;;;;;5012048;28;20024;-71
2022/11/04 10:21:31;;;;;;;;;;;11.10;99.90;;;;;;5020817;28;20012;-72
2022/11/04 10:24:05;;;;;;;;;;;11.20;99.90;;;;;;5021120;28;19929;-72
2022/11/04 10:26:34;;;;;;;;;;;11.50;99.90;;;;;;5017405;28;19936;-71
2022/11/04 10:29:02;;;;;;;;;;;11.50;99.90;;;;;;5028379;28;20004;-70
2022/11/04 10:31:29;;;;;;;;;;;11.70;99.90;;;;;;5014332;28;19976;-71
2022/11/04 10:33:59;;;;;;;;;;;11.80;99.90;;;;;;5026202;28;20009;-70
2022/11/04 10:36:26;;;;;;;;;;;11.90;99.90;;;;;;5018757;28;20327;-72
2022/11/04 10:38:53;;;;;;;;;;;12.10;99.90;;;;;;5024050;28;19932;-72
2022/11/04 10:41:25;;;;;;;;;;;12.20;99.90;;;;;;5022904;28;20231;-70
2022/11/04 10:43:53;;;;;;;;;;;12.30;99.90;;;;;;5020543;28;19933;-73
2022/11/04 10:46:24;;;;;;;;;;;12.20;99.90;;;;;;5019062;28;19932;-71
2022/11/04 10:48:54;;;;;;;;;;;12.20;99.90;;;;;;5020528;28;20020;-71
2022/11/04 10:51:23;;;;;;;;;;;12.20;99.90;;;;;;5023610;28;20355;-71
2022/11/04 10:53:53;;;;;;;;;;;12.20;99.90;;;;;;5024419;28;19955;-71
2022/11/04 10:56:25;;;;;;;;;;;12.20;99.90;;;;;;5018988;28;20532;-71
2022/11/04 10:58:54;;;;;;;;;;;12.10;99.90;;;;;;5021930;28;19936;-72
2022/11/04 11:01:24;;;;;;;;;;;12.10;99.90;;;;;;5015887;28;19932;-71
2022/11/04 11:03:51;;;;;;;;;;;12.00;99.90;;;;;;5025287;28;19972;-71
2022/11/04 11:06:27;;;;;;;;;;;12.10;99.90;;;;;;5026164;28;19972;-72
2022/11/04 11:08:55;;;;;;;;;;;12.10;99.90;;;;;;5016974;28;19965;-71
2022/11/04 11:11:39;;;;;;;;;;;12.10;99.90;;;;;;5022757;28;20276;-71
2022/11/04 11:14:14;;;;;;;;;;;12.10;99.90;;;;;;5020378;28;19938;-75
2022/11/04 11:16:41;;;;;;;;;;;12.10;99.90;;;;;;5027274;28;20295;-72
2022/11/04 11:19:12;;;;;;;;;;;12.10;99.90;;;;;;5027135;28;20012;-70
2022/11/04 11:21:44;;;;;;;;;;;12.00;99.90;;;;;;5031261;28;19937;-72
2022/11/04 11:24:16;;;;;;;;;;;12.00;99.90;;;;;;5020007;28;19926;-71
2022/11/04 11:26:47;;;;;;;;;;;12.00;99.90;;;;;;5017915;28;19945;-72
2022/11/04 11:29:20;;;;;;;;;;;12.10;99.90;;;;;;5023436;28;19929;-72
2022/11/04 11:31:46;;;;;;;;;;;12.10;99.90;;;;;;5024028;28;19932;-69
2022/11/04 11:34:15;;;;;;;;;;;12.00;99.90;;;;;;5035637;28;20033;-69
2022/11/04 11:36:46;;;;;;;;;;;11.90;99.90;;;;;;5025864;28;19925;-72
2022/11/04 11:39:15;;;;;;;;;;;11.90;99.90;;;;;;5021212;28;19973;-71
2022/11/04 11:41:50;;;;;;;;;;;11.90;99.90;;;;;;5016370;28;19925;-71
2022/11/04 11:44:22;;;;;;;;;;;11.90;99.90;;;;;;5023442;28;19968;-71
2022/11/04 11:46:51;;;;;;;;;;;11.80;99.90;;;;;;5019123;28;19926;-70
2022/11/04 11:49:23;;;;;;;;;;;11.70;99.90;;;;;;5025127;28;19929;-71
2022/11/04 11:51:51;;;;;;;;;;;11.60;99.90;;;;;;5025653;28;20019;-71
2022/11/04 11:54:23;;;;;;;;;;;11.60;99.90;;;;;;5025326;28;19972;-72
2022/11/04 11:56:51;;;;;;;;;;;11.60;99.90;;;;;;5032391;28;19972;-71
2022/11/04 11:59:25;;;;;;;;;;;11.60;99.90;;;;;;5023766;28;20406;-71
2022/11/04 12:01:54;;;;;;;;;;;11.60;99.90;;;;;;5023502;28;19937;-71
2022/11/04 12:04:21;;;;;;;;;;;11.60;99.90;;;;;;5023553;28;19977;-71
2022/11/04 12:06:51;;;;;;;;;;;11.60;99.90;;;;;;5025256;28;19925;-72
2022/11/04 12:09:24;;;;;;;;;;;11.50;99.90;;;;;;5017679;28;19925;-70
2022/11/04 12:11:56;;;;;;;;;;;11.50;99.90;;;;;;5023062;28;19926;-72
2022/11/04 12:14:29;;;;;;;;;;;11.50;99.90;;;;;;5024743;28;20027;-71
2022/11/04 12:16:59;;;;;;;;;;;11.50;99.90;;;;;;5018889;28;20480;-71
2022/11/04 12:19:32;;;;;;;;;;;11.60;99.90;;;;;;5024018;28;19991;-70
2022/11/04 12:22:03;;;;;;;;;;;11.80;99.90;;;;;;5020855;28;20009;-70
2022/11/04 12:24:35;;;;;;;;;;;12.00;99.90;;;;;;5020418;28;19926;-70
2022/11/04 12:27:07;;;;;;;;;;;12.20;99.90;;;;;;5020441;28;19936;-70
2022/11/04 12:29:42;;;;;;;;;;;12.30;99.90;;;;;;5027787;28;19933;-71
2022/11/04 12:32:16;;;;;;;;;;;12.50;99.90;;;;;;5031506;28;19925;-69
2022/11/04 12:34:50;;;;;;;;;;;12.60;99.90;;;;;;5020553;28;19928;-70
2022/11/04 12:37:23;;;;;;;;;;;12.70;99.90;;;;;;5024406;28;20023;-70
2022/11/04 12:40:03;;;;;;;;;;;13.00;99.90;;;;;;5029427;28;19925;-70
2022/11/04 12:42:37;;;;;;;;;;;13.10;99.90;;;;;;5013014;28;19926;-70
2022/11/04 12:45:11;;;;;;;;;;;12.90;99.90;;;;;;5017493;28;20506;-71
2022/11/04 12:47:39;;;;;;;;;;;12.90;99.90;;;;;;5028924;28;20051;-70
2022/11/04 12:50:22;;;;;;;;;;;12.90;99.90;;;;;;5025441;28;19926;-70
2022/11/04 12:53:11;;;;;;;;;;;12.80;99.90;;;;;;5025353;28;19973;-71
2022/11/04 12:55:44;;;;;;;;;;;12.90;99.90;;;;;;5026587;28;19957;-71
2022/11/04 12:58:29;;;;;;;;;;;12.90;99.90;;;;;;5026799;28;19932;-69
2022/11/04 13:01:00;;;;;;;;;;;12.80;99.90;;;;;;5016955;28;20310;-70
2022/11/04 13:03:30;;;;;;;;;;;13.00;99.90;;;;;;5025707;28;20331;-70
2022/11/04 13:06:02;;;;;;;;;;;13.00;99.90;;;;;;5032883;28;19925;-71
2022/11/04 13:08:32;;;;;;;;;;;12.90;99.90;;;;;;5032076;28;19972;-69
2022/11/04 13:11:05;;;;;;;;;;;12.80;99.90;;;;;;5018430;28;19929;-70
2022/11/04 13:13:34;;;;;;;;;;;12.80;99.90;;;;;;5017899;28;19948;-70
2022/11/04 13:16:03;;;;;;;;;;;12.70;99.90;;;;;;5032237;28;20007;-69
2022/11/04 13:18:31;;;;;;;;;;;12.60;99.90;;;;;;5032166;28;20476;-70
2022/11/04 13:21:00;;;;;;;;;;;12.60;99.90;;;;;;5016187;28;20008;-71
2022/11/04 13:23:28;;;;;;;;;;;12.70;99.90;;;;;;5012760;28;20017;-69
2022/11/04 13:25:57;;;;;;;;;;;12.70;99.90;;;;;;5032338;28;19925;-70
2022/11/04 13:28:25;;;;;;;;;;;12.60;99.90;;;;;;5029561;28;19956;-69
2022/11/04 13:30:56;;;;;;;;;;;12.70;99.90;;;;;;5018016;28;20028;-70
2022/11/04 13:33:27;;;;;;;;;;;12.70;99.90;;;;;;5019980;28;19976;-69
2022/11/04 13:35:58;;;;;;;;;;;12.60;99.90;;;;;;5018191;28;19925;-70
2022/11/04 13:38:28;;;;;;;;;;;12.60;99.90;;;;;;5017757;28;19959;-69
2022/11/04 13:41:01;;;;;;;;;;;12.40;99.90;;;;;;5018563;28;19995;-70
2022/11/04 13:43:38;;;;;;;;;;;12.30;99.90;;;;;;5017330;28;19965;-69
2022/11/04 13:46:07;;;;;;;;;;;12.30;99.90;;;;;;5020347;28;19925;-69
2022/11/04 13:48:36;;;;;;;;;;;12.40;99.90;;;;;;5013598;28;20402;-70
2022/11/04 13:51:06;;;;;;;;;;;12.40;99.90;;;;;;5025547;28;19925;-71
2022/11/04 13:53:46;;;;;;;;;;;12.60;99.90;;;;;;5027175;28;20019;-69
2022/11/04 13:56:30;;;;;;;;;;;12.60;99.90;;;;;;5015240;28;20046;-71
2022/11/04 13:59:00;;;;;;;;;;;12.60;99.90;;;;;;5016854;28;20285;-70
2022/11/04 14:01:28;;;;;;;;;;;12.50;99.90;;;;;;5013074;28;19960;-68
2022/11/04 14:04:00;;;;;;;;;;;12.20;99.90;;;;;;5012895;28;19932;-70
2022/11/04 14:06:47;;;;;;;;;;;11.80;99.90;;;;;;5016229;28;20284;-70
2022/11/04 14:09:24;;;;;;;;;;;11.50;99.90;;;;;;5019459;28;19925;-70
2022/11/04 14:12:09;;;;;;;;;;;11.20;99.90;;;;;;5020949;28;20277;-70
2022/11/04 14:14:38;;;;;;;;;;;11.10;99.90;;;;;;5029852;28;19926;-70
2022/11/04 14:17:24;;;;;;;;;;;11.10;99.90;;;;;;5028010;28;19934;-70
2022/11/04 14:19:57;;;;;;;;;;;11.00;99.90;;;;;;5024562;28;20376;-69
2022/11/04 14:22:31;;;;;;;;;;;10.90;99.90;;;;;;5026945;28;20304;-70
2022/11/04 14:24:58;;;;;;;;;;;10.90;99.90;;;;;;5021669;28;19933;-70
2022/11/04 14:27:27;;;;;;;;;;;10.90;99.90;;;;;;5021396;28;20406;-71
2022/11/04 14:29:55;;;;;;;;;;;10.90;99.90;;;;;;5023076;28;20488;-70
2022/11/04 14:32:24;;;;;;;;;;;10.80;99.90;;;;;;5022619;28;19937;-70
2022/11/04 14:34:57;;;;;;;;;;;10.90;99.90;;;;;;5033854;28;20012;-70
2022/11/04 14:37:27;;;;;;;;;;;10.80;99.90;;;;;;5025971;28;19956;-71
2022/11/04 14:39:57;;;;;;;;;;;10.80;99.90;;;;;;5030720;28;20339;-71
2022/11/04 14:42:38;;;;;;;;;;;10.80;99.90;;;;;;5036731;28;20024;-70
2022/11/04 14:45:08;;;;;;;;;;;10.80;99.90;;;;;;5034674;28;19933;-71
2022/11/04 14:47:36;;;;;;;;;;;10.80;99.90;;;;;;5031335;28;20031;-71
2022/11/04 14:50:04;;;;;;;;;;;10.70;99.90;;;;;;5031724;28;19967;-71
2022/11/04 14:52:33;;;;;;;;;;;10.70;99.90;;;;;;5031661;28;19972;-70
2022/11/04 14:55:04;;;;;;;;;;;10.70;99.90;;;;;;5040082;28;20104;-72
2022/11/04 14:57:35;;;;;;;;;;;10.70;99.90;;;;;;5039288;28;19925;-71
2022/11/04 15:03:01;;;;;;;;;;;10.70;99.90;;;;;;5115451;27;19916;-70
2022/11/04 15:05:29;;;;;;;;;;;10.80;99.90;;;;;;5111032;28;20390;-70
2022/11/04 15:07:56;;;;;;;;;;;10.70;99.90;;;;;;5118335;28;19930;-70
2022/11/04 15:10:24;;;;;;;;;;;10.70;99.90;;;;;;5121459;28;19924;-70